Terminal Aerodrome Forecast
Issued by NWS Shreveport, LA

Home | Current Version | Previous Version | Text Only | Print | Product List | Glossary On
Versions: 1 2 3 4 5 6 7 8 9 10 11 12 13 14 15
044
FTUS44 KSHV 312331
TAFMLU
TAF
KMLU 312331Z 0100/0124 18003KT P6SM FEW050 BKN250
     FM010200 18003KT P6SM BKN250
      TEMPO 0110/0113 5SM BR
     FM011400 20005KT P6SM BKN170 BKN250
     FM011600 19006KT P6SM SCT030 BKN170 BKN250
     FM011800 18007KT P6SM SCT045 BKN170 BKN250=

USA.gov is the U.S. government's official web portal to all federal, state and local government web resources and services.